Time;durP1;ratioP1;P1;durP2;ratioP2;P2;SDS_P1;SDS_P2;PMS_P1;PMS_P2;Temp;Humidity;BMP_temperature;BMP_pressure;BME280_temperature;BME280_humidity;BME280_pressure;Samples;Min_cycle;Max_cycle;Signal;HPM_P1;HPM_P2
2023/01/15 00:02:06;;;;;;;15.07;10.60;;;3.20;70.70;;;;;;5057108;28;20467;-56
2023/01/15 00:04:34;;;;;;;16.95;11.80;;;3.20;70.60;;;;;;5052399;28;20037;-55
2023/01/15 00:06:59;;;;;;;14.13;10.65;;;3.20;70.60;;;;;;5055782;28;20060;-58
2023/01/15 00:09:25;;;;;;;14.23;10.82;;;3.20;70.60;;;;;;5066518;28;20074;-55
2023/01/15 00:11:51;;;;;;;15.38;11.30;;;3.20;70.60;;;;;;5050917;28;20511;-49
2023/01/15 00:14:16;;;;;;;18.63;12.27;;;3.20;70.50;;;;;;5053315;28;20113;-49
2023/01/15 00:16:44;;;;;;;13.73;10.38;;;3.20;70.60;;;;;;5052932;28;20078;-53
2023/01/15 00:19:11;;;;;;;16.40;11.50;;;3.20;70.50;;;;;;5055342;28;20032;-50
2023/01/15 00:21:37;;;;;;;13.50;9.85;;;3.20;70.70;;;;;;5057700;28;20021;-60
2023/01/15 00:29:33;;;;;;;14.18;10.38;;;3.30;70.70;;;;;;5055013;28;20090;-59
2023/01/15 00:32:04;;;;;;;15.65;10.35;;;3.30;70.50;;;;;;5058635;28;20029;-58
2023/01/15 00:34:30;;;;;;;14.80;10.32;;;3.30;70.70;;;;;;5055584;28;20031;-55
2023/01/15 00:36:56;;;;;;;15.15;10.82;;;3.40;70.60;;;;;;5061680;28;20410;-58
2023/01/15 00:39:25;;;;;;;16.67;10.65;;;3.40;70.40;;;;;;5058361;28;20036;-55
2023/01/15 00:41:51;;;;;;;17.25;10.82;;;3.40;70.40;;;;;;5059459;28;20037;-56
2023/01/15 00:44:18;;;;;;;15.10;11.07;;;3.40;70.40;;;;;;5054546;28;20534;-56
2023/01/15 00:46:43;;;;;;;16.05;11.30;;;3.40;70.40;;;;;;5059617;28;20045;-56
2023/01/15 00:49:09;;;;;;;14.18;10.18;;;3.40;70.30;;;;;;5057942;28;20032;-54
2023/01/15 00:51:35;;;;;;;14.90;9.90;;;3.40;70.50;;;;;;5060373;28;20375;-53
2023/01/15 00:54:01;;;;;;;15.43;10.60;;;3.40;70.40;;;;;;5051511;28;20040;-51
2023/01/15 00:56:27;;;;;;;13.52;9.90;;;3.50;70.50;;;;;;5052431;28;20029;-49
2023/01/15 00:58:53;;;;;;;15.15;11.40;;;3.50;70.20;;;;;;5063757;28;20107;-50
2023/01/15 01:01:19;;;;;;;16.83;11.05;;;3.60;70.10;;;;;;5061895;28;20112;-56
2023/01/15 01:03:51;;;;;;;15.27;11.20;;;3.70;69.90;;;;;;5053842;28;20144;-57
2023/01/15 01:06:17;;;;;;;17.60;11.20;;;3.70;69.70;;;;;;5051890;28;20028;-56
2023/01/15 01:08:44;;;;;;;15.02;10.57;;;3.70;69.60;;;;;;5050023;28;20029;-56
2023/01/15 01:11:13;;;;;;;13.57;10.55;;;3.80;69.50;;;;;;5045633;28;20033;-57
2023/01/15 01:13:39;;;;;;;16.38;10.68;;;3.80;69.40;;;;;;5048773;28;20028;-57
2023/01/15 01:16:24;;;;;;;18.75;11.65;;;3.80;69.30;;;;;;5051725;28;20036;-52
2023/01/15 01:18:50;;;;;;;15.73;11.07;;;3.90;69.20;;;;;;5054696;28;20032;-50
2023/01/15 01:21:16;;;;;;;14.45;10.57;;;3.90;69.20;;;;;;5048506;28;20033;-56
2023/01/15 01:23:42;;;;;;;14.32;9.75;;;3.90;69.30;;;;;;5050921;28;20044;-57
2023/01/15 01:26:09;;;;;;;16.98;10.85;;;3.90;69.40;;;;;;5051405;28;20029;-56
2023/01/15 01:28:34;;;;;;;12.88;8.90;;;3.90;69.30;;;;;;5057189;28;20037;-56
2023/01/15 01:31:04;;;;;;;12.77;8.57;;;3.90;69.30;;;;;;5059897;28;20510;-59
2023/01/15 01:33:29;;;;;;;11.60;8.30;;;3.80;69.40;;;;;;5055776;28;20025;-62
2023/01/15 01:35:55;;;;;;;13.38;8.95;;;3.80;69.50;;;;;;5057268;28;20039;-59
2023/01/15 01:38:20;;;;;;;12.32;8.65;;;3.90;69.70;;;;;;5051694;28;20057;-60
2023/01/15 01:40:46;;;;;;;11.50;8.30;;;3.80;69.60;;;;;;5061138;28;20025;-56
2023/01/15 01:43:21;;;;;;;14.93;8.75;;;3.90;69.60;;;;;;5053286;28;20051;-57
2023/01/15 01:45:46;;;;;;;13.68;8.80;;;3.90;69.60;;;;;;5053578;28;20096;-56
2023/01/15 01:48:13;;;;;;;11.85;8.00;;;3.90;69.50;;;;;;5058004;28;20032;-56
2023/01/15 01:50:41;;;;;;;10.90;8.93;;;3.90;69.50;;;;;;5047570;28;20159;-56
2023/01/15 01:53:13;;;;;;;14.00;8.02;;;3.80;69.60;;;;;;5060576;28;20037;-57
2023/01/15 01:55:40;;;;;;;9.63;8.07;;;3.80;69.80;;;;;;5052429;28;20055;-56
2023/01/15 01:58:08;;;;;;;11.57;8.32;;;3.80;69.90;;;;;;5056172;28;20032;-57
2023/01/15 02:00:37;;;;;;;10.65;8.13;;;3.80;69.80;;;;;;5052630;28;20102;-56
2023/01/15 02:03:05;;;;;;;11.10;7.68;;;3.90;69.80;;;;;;5058855;28;20442;-58
2023/01/15 02:05:36;;;;;;;12.60;8.20;;;3.90;69.70;;;;;;5051449;28;20134;-56
2023/01/15 02:08:03;;;;;;;13.02;8.75;;;4.00;69.70;;;;;;5060856;28;20060;-58
2023/01/15 02:10:29;;;;;;;11.25;8.18;;;4.00;69.70;;;;;;5055913;28;20083;-54
2023/01/15 02:13:02;;;;;;;13.48;8.48;;;4.00;69.60;;;;;;5053601;28;20419;-57
2023/01/15 02:15:48;;;;;;;14.32;8.80;;;4.00;69.80;;;;;;5043645;28;20045;-56
2023/01/15 02:18:29;;;;;;;14.20;8.60;;;4.00;69.50;;;;;;5047810;28;20030;-54
2023/01/15 02:20:59;;;;;;;;;;;4.00;69.40;;;;;;5054084;28;20071;-56
2023/01/15 02:23:27;;;;;;;15.77;8.32;;;3.90;69.50;;;;;;5054982;28;19981;-56
2023/01/15 02:26:16;;;;;;;16.20;10.48;;;3.90;69.60;;;;;;5057063;28;20041;-57
2023/01/15 02:28:45;;;;;;;14.30;9.98;;;3.90;69.50;;;;;;5056126;28;20490;-56
2023/01/15 02:31:20;;;;;;;12.75;9.00;;;3.90;69.40;;;;;;5053067;28;20028;-56
2023/01/15 02:34:00;;;;;;;14.43;8.65;;;3.80;69.40;;;;;;5068830;28;20111;-56
2023/01/15 02:36:29;;;;;;;14.38;9.45;;;3.80;69.50;;;;;;5042863;28;20025;-59
2023/01/15 02:38:57;;;;;;;12.52;9.10;;;3.70;69.50;;;;;;5057449;28;20064;-59
2023/01/15 02:41:27;;;;;;;16.30;9.77;;;3.70;69.40;;;;;;5057538;28;20037;-59
2023/01/15 02:43:55;;;;;;;11.65;8.98;;;3.60;69.50;;;;;;5057446;28;20047;-59
2023/01/15 02:46:26;;;;;;;13.75;9.52;;;3.50;69.60;;;;;;5041878;28;20110;-55
2023/01/15 02:48:54;;;;;;;12.80;8.35;;;3.60;69.90;;;;;;5064241;28;20109;-55
2023/01/15 02:51:24;;;;;;;11.63;8.20;;;3.50;70.00;;;;;;5054938;28;20044;-56
2023/01/15 02:53:54;;;;;;;11.48;7.63;;;3.50;70.70;;;;;;5054056;28;20111;-56
2023/01/15 02:56:24;;;;;;;12.32;8.20;;;3.50;70.10;;;;;;5054201;28;20036;-55
2023/01/15 02:58:53;;;;;;;10.63;7.47;;;3.60;70.30;;;;;;5066284;28;20029;-56
2023/01/15 03:01:25;;;;;;;10.48;7.63;;;3.60;70.30;;;;;;5054383;28;20066;-56
2023/01/15 03:04:02;;;;;;;9.30;7.38;;;3.60;70.10;;;;;;5063932;28;20064;-59
2023/01/15 03:06:53;;;;;;;10.23;7.82;;;3.70;70.10;;;;;;5054286;28;20033;-59
2023/01/15 03:09:20;;;;;;;12.10;8.27;;;3.70;70.00;;;;;;5045906;28;20399;-60
2023/01/15 03:11:52;;;;;;;11.57;7.93;;;3.70;70.00;;;;;;5041194;28;20029;-57
2023/01/15 03:14:23;;;;;;;10.80;7.82;;;3.70;70.00;;;;;;5051820;28;20033;-57
2023/01/15 03:17:00;;;;;;;12.63;8.30;;;3.70;70.60;;;;;;5051497;28;20098;-55
2023/01/15 03:19:48;;;;;;;10.60;7.43;;;3.70;69.90;;;;;;5062821;28;20029;-55
2023/01/15 03:22:22;;;;;;;11.10;7.53;;;3.80;69.90;;;;;;5054549;28;20041;-55
2023/01/15 03:24:50;;;;;;;10.30;7.60;;;3.80;69.90;;;;;;5052967;28;20065;-54
2023/01/15 03:27:16;;;;;;;13.25;8.10;;;3.80;69.80;;;;;;5054953;28;20029;-57
2023/01/15 03:29:45;;;;;;;9.95;7.70;;;3.80;69.80;;;;;;5056123;28;20024;-56
2023/01/15 03:32:11;;;;;;;9.55;7.30;;;3.80;69.60;;;;;;5067527;28;20044;-56
2023/01/15 03:34:43;;;;;;;10.38;7.90;;;3.70;69.50;;;;;;5053225;28;20108;-55
2023/01/15 03:37:08;;;;;;;10.93;7.57;;;3.70;69.60;;;;;;5056355;28;20054;-58
2023/01/15 03:39:34;;;;;;;10.45;8.07;;;3.70;69.70;;;;;;5054882;28;20128;-57
2023/01/15 03:42:34;;;;;;;11.43;7.38;;;3.70;69.90;;;;;;5057063;28;20037;-58
2023/01/15 03:45:22;;;;;;;9.85;7.40;;;3.70;69.80;;;;;;5048946;28;20417;-58
2023/01/15 03:48:11;;;;;;;11.85;7.50;;;3.70;69.80;;;;;;5065204;28;20139;-53
2023/01/15 03:50:48;;;;;;;11.02;7.93;;;3.70;69.80;;;;;;5058696;28;20071;-57
2023/01/15 03:53:45;;;;;;;12.05;7.40;;;3.70;69.70;;;;;;5051614;28;20091;-57
2023/01/15 03:56:37;;;;;;;12.45;7.18;;;3.70;69.50;;;;;;5039501;28;20486;-56
2023/01/15 03:59:11;;;;;;;;;;;3.60;69.50;;;;;;5057186;28;20036;-57
2023/01/15 04:01:40;;;;;;;12.23;7.40;;;3.50;69.80;;;;;;5059235;28;19935;-57
2023/01/15 04:04:06;;;;;;;11.52;7.57;;;3.50;70.00;;;;;;5052219;28;20104;-57
2023/01/15 04:06:36;;;;;;;17.00;8.30;;;3.40;70.10;;;;;;5057036;28;20490;-61
2023/01/15 04:09:05;;;;;;;10.88;7.90;;;3.40;70.30;;;;;;5061285;28;20044;-59
2023/01/15 04:11:31;;;;;;;9.02;7.07;;;3.30;70.40;;;;;;5051492;28;20036;-61
2023/01/15 04:13:57;;;;;;;10.30;7.22;;;3.30;70.60;;;;;;5060459;28;20029;-61
2023/01/15 04:16:28;;;;;;;15.20;7.15;;;3.30;71.30;;;;;;5049384;28;20078;-57
2023/01/15 04:18:53;;;;;;;9.93;6.93;;;3.30;71.10;;;;;;5047354;28;20032;-57
2023/01/15 04:21:19;;;;;;;9.57;6.63;;;3.30;71.10;;;;;;5052740;28;20040;-57
2023/01/15 04:23:45;;;;;;;8.18;6.43;;;3.30;71.30;;;;;;5052095;28;20029;-57
2023/01/15 04:26:12;;;;;;;8.57;6.65;;;3.40;71.40;;;;;;5052944;28;20039;-61
2023/01/15 04:28:37;;;;;;;10.40;6.80;;;3.40;71.50;;;;;;5054295;28;20033;-61
2023/01/15 04:31:03;;;;;;;11.10;7.45;;;3.40;71.50;;;;;;5062288;28;20517;-61
2023/01/15 04:33:29;;;;;;;13.85;7.38;;;3.40;71.60;;;;;;5054222;28;20051;-61
2023/01/15 04:35:59;;;;;;;12.23;7.80;;;3.40;71.50;;;;;;5053133;28;20040;-58
2023/01/15 04:38:25;;;;;;;10.80;8.13;;;3.40;71.40;;;;;;5065968;28;20033;-61
2023/01/15 04:46:25;;;;;;;9.40;6.57;;;3.40;71.90;;;;;;5036244;28;20060;-57
2023/01/15 04:48:51;;;;;;;9.23;6.85;;;3.40;72.00;;;;;;5057437;28;20695;-57
2023/01/15 04:51:16;;;;;;;13.95;7.63;;;3.50;72.20;;;;;;5053752;28;20040;-58
2023/01/15 04:53:42;;;;;;;10.82;8.35;;;3.50;72.20;;;;;;5051974;28;20036;-57
2023/01/15 04:56:10;;;;;;;13.18;8.70;;;3.50;72.20;;;;;;5051933;28;20463;-57
2023/01/15 04:58:36;;;;;;;10.30;8.18;;;3.60;72.20;;;;;;5058704;28;20045;-58
2023/01/15 05:01:01;;;;;;;11.60;8.40;;;3.60;72.20;;;;;;5045085;28;20025;-54
2023/01/15 05:03:28;;;;;;;11.55;8.90;;;3.60;72.10;;;;;;5061100;28;20156;-49
2023/01/15 05:05:54;;;;;;;18.77;10.00;;;3.60;72.10;;;;;;5052231;28;20039;-57
2023/01/15 05:08:19;;;;;;;14.18;9.57;;;3.60;72.20;;;;;;5061190;28;20032;-58
2023/01/15 05:10:45;;;;;;;20.60;11.10;;;3.60;72.10;;;;;;5059013;28;20095;-57
2023/01/15 05:13:11;;;;;;;19.52;10.30;;;3.60;72.30;;;;;;5057748;28;20047;-57
2023/01/15 05:15:39;;;;;;;17.27;11.02;;;3.50;72.20;;;;;;5051982;28;20036;-62
2023/01/15 05:18:05;;;;;;;14.80;8.85;;;3.50;72.30;;;;;;5055621;28;20032;-61
2023/01/15 05:20:31;;;;;;;16.92;10.10;;;3.40;72.60;;;;;;5050793;28;20098;-61
2023/01/15 05:22:56;;;;;;;16.80;10.93;;;3.40;72.80;;;;;;5050622;28;20025;-59
2023/01/15 05:25:22;;;;;;;15.68;11.00;;;3.40;72.80;;;;;;5062375;28;20051;-56
2023/01/15 05:27:48;;;;;;;18.52;10.73;;;3.50;72.80;;;;;;5052044;28;20060;-57
2023/01/15 05:30:14;;;;;;;17.48;11.20;;;3.40;72.80;;;;;;5056474;28;20054;-57
2023/01/15 05:32:39;;;;;;;19.00;11.88;;;3.40;72.90;;;;;;5055101;28;20357;-57
2023/01/15 05:35:05;;;;;;;20.55;11.95;;;3.40;73.00;;;;;;5051620;28;20111;-58
2023/01/15 05:37:31;;;;;;;15.88;11.48;;;3.40;73.00;;;;;;5050806;28;20422;-57
2023/01/15 05:39:57;;;;;;;17.33;10.95;;;3.40;73.10;;;;;;5057591;28;20104;-57
2023/01/15 05:42:22;;;;;;;17.80;11.25;;;3.40;73.10;;;;;;5054459;28;20045;-58
2023/01/15 05:44:48;;;;;;;18.85;11.80;;;3.40;73.20;;;;;;5051597;28;20033;-57
2023/01/15 05:47:13;;;;;;;18.90;12.30;;;3.40;73.40;;;;;;5049420;28;20053;-57
2023/01/15 05:49:39;;;;;;;20.50;12.90;;;3.40;73.30;;;;;;5063491;28;20036;-57
2023/01/15 05:52:05;;;;;;;18.27;12.05;;;3.40;73.20;;;;;;5043979;28;20498;-56
2023/01/15 05:54:35;;;;;;;19.17;13.68;;;3.40;73.20;;;;;;5043074;28;20120;-56
2023/01/15 05:57:01;;;;;;;19.52;13.57;;;3.40;73.10;;;;;;5056705;28;20040;-57
2023/01/15 05:59:28;;;;;;;20.15;13.82;;;3.40;73.10;;;;;;5052531;28;20561;-57
2023/01/15 06:01:55;;;;;;;20.92;13.68;;;3.30;73.20;;;;;;5060872;28;20112;-57
2023/01/15 06:04:21;;;;;;;20.13;13.13;;;3.30;73.50;;;;;;5062437;28;20036;-57
2023/01/15 06:06:48;;;;;;;20.80;13.23;;;3.30;73.60;;;;;;5033473;28;20037;-57
2023/01/15 06:09:14;;;;;;;22.25;14.45;;;3.30;73.70;;;;;;5058987;28;20036;-57
2023/01/15 06:11:40;;;;;;;21.13;14.18;;;3.20;73.60;;;;;;5051739;28;20440;-57
2023/01/15 06:14:06;;;;;;;21.65;14.48;;;3.20;73.50;;;;;;5067094;28;20043;-56
2023/01/15 06:16:32;;;;;;;19.88;13.70;;;3.10;73.50;;;;;;5071509;28;20024;-56
2023/01/15 06:19:03;;;;;;;21.25;13.32;;;3.10;73.60;;;;;;5069282;28;20029;-56
2023/01/15 06:21:29;;;;;;;19.00;12.65;;;3.10;73.70;;;;;;5064786;28;20028;-58
2023/01/15 06:23:55;;;;;;;19.55;13.45;;;3.10;73.80;;;;;;5061431;28;20820;-58
2023/01/15 06:26:21;;;;;;;20.45;13.68;;;3.10;74.10;;;;;;5068956;28;20127;-58
2023/01/15 06:28:47;;;;;;;20.60;13.00;;;3.10;74.20;;;;;;5070217;28;20039;-58
2023/01/15 06:31:15;;;;;;;20.27;14.13;;;3.10;74.30;;;;;;5065007;28;20467;-58
2023/01/15 06:33:41;;;;;;;25.48;15.52;;;3.20;74.30;;;;;;5063892;28;20036;-58
2023/01/15 06:36:16;;;;;;;19.27;13.35;;;3.20;74.20;;;;;;5065706;28;20039;-58
2023/01/15 06:38:43;;;;;;;19.95;13.10;;;3.10;74.10;;;;;;5066359;28;20037;-58
2023/01/15 06:49:32;;;;;;;16.98;12.13;;;3.20;74.60;;;;;;5069124;28;20047;-57
2023/01/15 06:51:58;;;;;;;18.52;12.07;;;3.10;74.60;;;;;;5067526;28;20060;-59
2023/01/15 06:54:24;;;;;;;19.58;11.85;;;3.10;74.70;;;;;;5069362;28;20441;-59
2023/01/15 06:56:50;;;;;;;19.25;12.40;;;3.10;74.70;;;;;;5064459;28;20083;-57
2023/01/15 06:59:16;;;;;;;17.52;11.63;;;3.20;74.70;;;;;;5058083;28;20387;-57
2023/01/15 07:25:16;;;;;;;15.13;10.05;;;3.10;75.10;;;;;;5045764;28;20052;-53
2023/01/15 07:27:44;;;;;;;18.17;11.15;;;3.10;75.10;;;;;;5065734;28;20383;-54
2023/01/15 07:30:11;;;;;;;17.02;12.15;;;3.10;75.40;;;;;;5070991;28;20139;-54
2023/01/15 07:32:36;;;;;;;13.77;10.85;;;3.10;75.40;;;;;;5059090;28;20383;-53
2023/01/15 07:35:02;;;;;;;17.80;12.30;;;3.20;75.50;;;;;;5054462;28;20037;-51
2023/01/15 07:37:28;;;;;;;17.48;11.77;;;3.20;75.50;;;;;;5070958;28;20093;-50
2023/01/15 07:39:53;;;;;;;18.40;12.52;;;3.20;75.40;;;;;;5066298;28;20028;-47
2023/01/15 07:50:32;;;;;;;15.48;10.73;;;3.20;75.30;;;;;;5033160;28;20076;-49
2023/01/15 07:52:57;;;;;;;13.50;10.57;;;3.20;75.50;;;;;;5054165;28;20100;-49
2023/01/15 07:55:23;;;;;;;16.17;11.73;;;3.20;75.60;;;;;;5069048;28;20075;-52
2023/01/15 07:57:49;;;;;;;15.82;11.30;;;3.20;75.60;;;;;;5047444;28;20078;-49
2023/01/15 08:00:20;;;;;;;16.25;11.55;;;3.20;75.70;;;;;;5067512;28;20036;-54
2023/01/15 08:02:48;;;;;;;16.93;11.77;;;3.20;75.70;;;;;;5070596;28;20027;-52
2023/01/15 08:05:14;;;;;;;14.88;11.38;;;3.20;75.70;;;;;;5049392;28;20120;-49
2023/01/15 08:07:41;;;;;;;13.38;10.52;;;3.20;75.80;;;;;;5048263;28;20082;-49
2023/01/15 08:10:12;;;;;;;15.52;11.23;;;3.20;75.90;;;;;;5062628;28;20056;-52
2023/01/15 08:15:22;;;;;;;14.95;10.80;;;3.20;76.00;;;;;;5072796;28;20097;-51
2023/01/15 08:17:50;;;;;;;18.25;10.57;;;3.10;75.90;;;;;;5061940;28;20056;-48
2023/01/15 08:20:18;;;;;;;13.82;10.63;;;3.10;75.90;;;;;;5062291;28;20498;-50
2023/01/15 08:22:44;;;;;;;14.85;10.90;;;3.20;76.10;;;;;;5065190;28;20100;-48
2023/01/15 08:25:12;;;;;;;15.93;11.40;;;3.20;76.10;;;;;;5051191;28;20051;-52
2023/01/15 08:27:39;;;;;;;17.30;11.48;;;3.10;76.10;;;;;;5047041;28;20535;-49
2023/01/15 08:30:07;;;;;;;19.67;12.07;;;3.10;76.00;;;;;;5059963;28;20028;-51
2023/01/15 08:32:33;;;;;;;14.63;11.43;;;3.10;76.00;;;;;;5059296;28;20418;-49
2023/01/15 08:34:58;;;;;;;18.52;13.30;;;3.10;76.10;;;;;;5058233;28;20033;-49
2023/01/15 08:37:24;;;;;;;15.75;10.38;;;3.00;76.20;;;;;;5050731;28;20036;-59
2023/01/15 08:39:51;;;;;;;17.92;11.77;;;3.00;76.30;;;;;;5059046;28;20036;-58
2023/01/15 08:42:19;;;;;;;13.40;10.98;;;3.00;76.40;;;;;;5056380;28;20029;-55
2023/01/15 08:44:45;;;;;;;16.02;10.23;;;3.00;76.40;;;;;;5059043;28;20375;-55
2023/01/15 08:47:10;;;;;;;19.48;11.82;;;3.00;76.60;;;;;;5052412;28;20053;-57
2023/01/15 08:49:37;;;;;;;18.98;12.85;;;3.00;76.70;;;;;;5071545;28;20075;-57
2023/01/15 08:52:03;;;;;;;17.92;12.32;;;3.10;76.70;;;;;;5062151;28;20032;-54
2023/01/15 08:54:29;;;;;;;18.30;11.15;;;3.10;76.60;;;;;;5041791;28;20025;-49
2023/01/15 08:56:54;;;;;;;14.93;10.57;;;3.10;76.50;;;;;;5036415;28;20035;-54
2023/01/15 08:59:20;;;;;;;14.32;10.65;;;3.20;76.60;;;;;;5063037;28;20029;-48
2023/01/15 09:01:46;;;;;;;16.65;11.95;;;3.20;76.80;;;;;;5055908;28;20024;-58
2023/01/15 09:04:16;;;;;;;18.33;12.23;;;3.20;76.60;;;;;;5063363;28;20029;-58
2023/01/15 09:06:42;;;;;;;15.23;11.43;;;3.30;76.50;;;;;;5032872;28;20033;-57
2023/01/15 09:09:08;;;;;;;14.02;10.63;;;3.30;76.40;;;;;;5060127;28;20037;-58
2023/01/15 09:11:34;;;;;;;14.57;10.35;;;3.30;76.30;;;;;;5055310;28;20033;-50
2023/01/15 09:13:59;;;;;;;18.10;11.98;;;3.30;76.40;;;;;;5067613;28;20111;-55
2023/01/15 09:16:26;;;;;;;17.35;11.15;;;3.30;76.30;;;;;;5070812;28;20032;-58
2023/01/15 09:18:52;;;;;;;13.88;10.15;;;3.30;76.30;;;;;;5066059;28;20020;-59
2023/01/15 09:21:19;;;;;;;19.80;11.60;;;3.30;76.10;;;;;;5072542;28;20030;-61
2023/01/15 09:23:45;;;;;;;14.00;10.38;;;3.40;76.10;;;;;;5054643;28;20380;-61
2023/01/15 09:26:31;;;;;;;16.95;11.73;;;3.40;76.10;;;;;;5063743;28;20038;-60
2023/01/15 09:28:57;;;;;;;15.80;11.27;;;3.40;76.10;;;;;;5051101;28;20090;-60
2023/01/15 09:31:24;;;;;;;13.80;10.73;;;3.40;76.00;;;;;;5061303;28;20024;-57
2023/01/15 09:33:50;;;;;;;18.20;12.55;;;3.40;75.90;;;;;;5052045;28;20112;-56
2023/01/15 09:36:23;;;;;;;17.38;12.63;;;3.40;75.90;;;;;;5065731;28;20056;-56
2023/01/15 09:38:50;;;;;;;18.35;11.82;;;3.40;75.80;;;;;;5062267;28;20064;-57
2023/01/15 09:44:28;;;;;;;15.77;10.55;;;3.40;75.70;;;;;;5066523;28;20055;-61
2023/01/15 09:46:59;;;;;;;15.45;10.88;;;3.40;75.70;;;;;;5069572;28;20040;-49
2023/01/15 09:49:55;;;;;;;15.00;9.32;;;3.50;76.00;;;;;;5054792;28;20037;-51
2023/01/15 09:52:57;;;;;;;15.13;9.35;;;3.50;75.90;;;;;;5065199;28;20530;-57
2023/01/15 09:55:29;;;;;;;12.00;9.45;;;3.50;75.80;;;;;;5033623;28;20122;-52
2023/01/15 09:57:58;;;;;;;16.20;10.02;;;3.60;75.80;;;;;;5059364;28;20043;-55
2023/01/15 10:00:26;;;;;;;13.75;9.10;;;3.60;76.40;;;;;;5032181;28;20144;-59
2023/01/15 10:03:10;;;;;;;15.13;10.48;;;3.60;75.70;;;;;;5045819;28;20025;-59
2023/01/15 10:05:52;;;;;;;12.82;9.65;;;3.60;75.70;;;;;;5056108;28;20032;-59
2023/01/15 10:08:35;;;;;;;16.75;11.32;;;3.70;75.80;;;;;;5041018;28;20029;-58
2023/01/15 10:11:16;;;;;;;15.45;9.65;;;3.70;75.70;;;;;;5045847;28;20029;-59
2023/01/15 10:13:50;;;;;;;12.70;10.17;;;3.70;75.70;;;;;;5056028;28;20090;-58
2023/01/15 10:16:25;;;;;;;14.25;10.80;;;3.70;75.60;;;;;;5054191;28;20598;-52
2023/01/15 10:18:52;;;;;;;13.63;8.32;;;3.70;75.40;;;;;;5061072;28;20028;-49
2023/01/15 10:21:36;;;;;;;15.30;8.98;;;3.70;75.40;;;;;;5052093;28;20025;-59
2023/01/15 10:24:12;;;;;;;12.80;9.25;;;3.70;75.60;;;;;;5048098;28;20021;-58
2023/01/15 10:26:47;;;;;;;19.02;9.88;;;3.70;75.60;;;;;;5049214;28;20037;-58
2023/01/15 10:29:21;;;;;;;18.35;9.75;;;3.60;75.70;;;;;;5055561;28;20122;-56
2023/01/15 10:32:06;;;;;;;19.70;10.48;;;3.60;75.70;;;;;;5056944;28;20021;-57
2023/01/15 10:34:40;;;;;;;17.63;10.40;;;3.60;75.70;;;;;;5033773;28;20033;-57
2023/01/15 10:37:32;;;;;;;16.67;10.00;;;3.60;75.70;;;;;;5044322;28;20025;-57
2023/01/15 10:40:16;;;;;;;14.20;10.40;;;3.50;75.70;;;;;;5047484;28;20124;-58
2023/01/15 10:43:09;;;;;;;15.85;10.60;;;3.50;75.90;;;;;;5046584;28;20049;-57
2023/01/15 10:45:49;;;;;;;16.95;11.18;;;3.50;75.90;;;;;;5039283;28;20075;-53
2023/01/15 10:48:27;;;;;;;13.10;8.55;;;3.50;75.90;;;;;;5055066;28;20455;-54
2023/01/15 10:50:54;;;;;;;13.57;9.35;;;3.50;76.60;;;;;;5056886;28;20041;-57
2023/01/15 10:53:41;;;;;;;15.88;10.20;;;3.50;76.00;;;;;;5052922;28;20367;-58
2023/01/15 10:56:36;;;;;;;17.13;10.98;;;3.50;76.00;;;;;;5053194;28;20029;-52
2023/01/15 10:59:07;;;;;;;14.95;9.40;;;3.50;75.90;;;;;;5032368;28;20379;-56
2023/01/15 11:01:33;;;;;;;12.27;8.68;;;3.50;75.90;;;;;;5058485;28;20032;-57
2023/01/15 11:03:59;;;;;;;13.05;9.75;;;3.50;76.00;;;;;;5054159;28;20029;-56
2023/01/15 11:06:25;;;;;;;12.13;8.88;;;3.50;76.10;;;;;;5044522;28;20058;-57
2023/01/15 11:08:56;;;;;;;14.40;9.05;;;3.60;76.00;;;;;;5053912;28;20048;-57
2023/01/15 11:19:54;;;;;;;;;;;3.60;75.70;;;;;;5051134;28;20036;-55
2023/01/15 11:22:20;;;;;;;13.18;8.15;;;3.50;75.80;;;;;;5051808;28;19917;-57
2023/01/15 11:24:52;;;;;;;14.70;8.77;;;3.60;75.90;;;;;;5053154;28;20022;-52
2023/01/15 11:27:31;;;;;;;12.77;8.75;;;3.60;76.00;;;;;;5052952;28;20554;-54
2023/01/15 11:29:59;;;;;;;13.52;8.45;;;3.50;75.90;;;;;;5058697;28;20031;-53
2023/01/15 11:32:30;;;;;;;12.05;8.93;;;3.50;76.10;;;;;;5052513;28;20033;-59
2023/01/15 11:35:13;;;;;;;14.43;9.48;;;3.50;76.10;;;;;;5052511;28;20486;-57
2023/01/15 11:37:39;;;;;;;14.10;8.27;;;3.50;76.10;;;;;;5041697;28;20115;-59
2023/01/15 11:40:07;;;;;;;11.75;8.95;;;3.50;76.00;;;;;;5057979;28;20520;-56
2023/01/15 11:51:09;;;;;;;14.88;8.02;;;3.30;76.60;;;;;;5053298;28;20060;-57
2023/01/15 11:53:46;;;;;;;11.85;8.23;;;3.20;76.70;;;;;;5046737;28;20541;-57
2023/01/15 11:56:23;;;;;;;12.57;7.78;;;3.20;76.90;;;;;;5054614;28;20029;-56
2023/01/15 11:58:52;;;;;;;17.83;9.02;;;3.20;76.90;;;;;;5055303;28;20111;-56
2023/01/15 12:01:35;;;;;;;15.95;9.63;;;3.20;76.90;;;;;;5050605;28;20503;-57
2023/01/15 12:04:05;;;;;;;12.90;8.70;;;3.20;76.90;;;;;;5045566;28;20707;-56
2023/01/15 12:06:34;;;;;;;16.13;8.35;;;3.10;76.90;;;;;;5035622;28;20837;-54
2023/01/15 12:09:13;;;;;;;13.68;7.82;;;3.10;77.10;;;;;;5046871;28;20070;-54
2023/01/15 12:11:47;;;;;;;13.95;9.25;;;3.10;77.30;;;;;;5044906;28;20033;-59
2023/01/15 12:14:32;;;;;;;17.00;9.85;;;3.00;77.30;;;;;;5045194;28;20041;-56
2023/01/15 12:17:24;;;;;;;20.30;10.32;;;2.90;77.20;;;;;;5051330;28;20036;-58
2023/01/15 12:20:10;;;;;;;17.17;9.88;;;2.90;77.40;;;;;;5035946;28;20035;-53
2023/01/15 12:22:57;;;;;;;16.05;9.43;;;2.80;77.80;;;;;;5051755;28;20033;-58
2023/01/15 12:25:35;;;;;;;16.45;9.07;;;2.70;78.00;;;;;;5041798;28;20649;-53
2023/01/15 12:28:14;;;;;;;18.92;9.93;;;2.70;78.10;;;;;;5054856;28;20033;-57
2023/01/15 12:30:53;;;;;;;16.88;9.82;;;2.60;78.10;;;;;;5049638;28;20060;-57
2023/01/15 12:33:31;;;;;;;15.68;8.93;;;2.60;78.40;;;;;;5044104;28;20067;-55
2023/01/15 12:36:02;;;;;;;21.80;9.90;;;2.60;78.80;;;;;;5045481;28;20095;-59
2023/01/15 12:38:46;;;;;;;19.65;9.48;;;2.60;78.80;;;;;;5044853;28;20464;-53
2023/01/15 12:47:40;;;;;;;16.55;8.05;;;2.50;78.90;;;;;;5048593;28;20056;-57
2023/01/15 12:50:43;;;;;;;19.08;8.63;;;2.50;79.10;;;;;;5049242;28;20048;-58
2023/01/15 12:53:36;;;;;;;15.93;9.38;;;2.40;79.10;;;;;;5016808;28;20067;-56
2023/01/15 12:56:08;;;;;;;19.08;9.93;;;2.40;79.40;;;;;;5051644;28;20037;-54
2023/01/15 12:58:48;;;;;;;;;;;2.40;79.60;;;;;;5046564;28;20041;-57
2023/01/15 13:01:51;;;;;;;12.05;7.65;;;2.40;79.60;;;;;;5053447;28;19916;-59
2023/01/15 13:04:23;;;;;;;13.55;8.00;;;2.40;79.50;;;;;;4993849;28;20038;-61
2023/01/15 13:07:01;;;;;;;12.95;7.90;;;2.40;79.70;;;;;;5036904;28;20033;-60
2023/01/15 13:09:42;;;;;;;19.65;9.07;;;2.40;79.70;;;;;;5041611;28;20032;-59
2023/01/15 13:12:16;;;;;;;17.48;9.95;;;2.40;79.70;;;;;;5042374;28;20083;-60
2023/01/15 13:14:43;;;;;;;18.33;10.00;;;2.30;79.80;;;;;;5047774;28;20028;-60
2023/01/15 13:17:17;;;;;;;17.67;10.88;;;2.30;79.80;;;;;;5057130;28;20034;-57
2023/01/15 13:20:08;;;;;;;16.48;9.30;;;2.30;80.00;;;;;;5044905;28;20071;-53
2023/01/15 13:22:40;;;;;;;;;;;2.30;80.00;;;;;;5056977;28;20029;-55
2023/01/15 13:25:41;;;;;;;14.80;8.23;;;2.20;80.10;;;;;;5057238;28;19951;-55
2023/01/15 13:28:39;;;;;;;16.48;8.63;;;2.20;80.10;;;;;;5038869;28;20139;-53
2023/01/15 13:31:10;;;;;;;16.55;8.15;;;2.20;80.30;;;;;;5036393;28;20089;-52
2023/01/15 13:34:13;;;;;;;14.23;8.60;;;2.20;80.50;;;;;;5064901;28;20044;-51
2023/01/15 13:36:42;;;;;;;12.55;7.95;;;2.10;80.40;;;;;;5038446;28;20076;-51
2023/01/15 13:39:16;;;;;;;21.95;9.75;;;2.20;81.30;;;;;;5051552;28;20120;-53
2023/01/15 13:44:32;;;;;;;15.30;8.57;;;2.20;80.70;;;;;;5053206;28;20048;-51
2023/01/15 13:47:04;;;;;;;11.63;8.23;;;2.20;80.80;;;;;;5042772;28;20045;-59
2023/01/15 13:49:35;;;;;;;17.15;8.48;;;2.20;80.80;;;;;;5064240;28;20044;-59
2023/01/15 13:52:03;;;;;;;12.55;7.97;;;2.30;81.00;;;;;;5052519;28;20044;-58
2023/01/15 13:54:31;;;;;;;17.13;8.45;;;2.30;80.80;;;;;;5049306;28;20120;-56
2023/01/15 13:57:33;;;;;;;13.88;8.20;;;2.30;80.80;;;;;;5047803;28;20030;-60
2023/01/15 13:59:59;;;;;;;;;;;2.30;80.50;;;;;;5064562;28;20044;-60
2023/01/15 14:02:31;;;;;;;12.10;7.55;;;2.30;80.60;;;;;;5051989;28;19913;-60
2023/01/15 14:04:57;;;;;;;16.95;7.97;;;2.20;80.50;;;;;;5057702;28;20029;-62
2023/01/15 14:07:36;;;;;;;12.60;7.80;;;2.20;80.70;;;;;;5051300;28;20175;-58
2023/01/15 14:10:31;;;;;;;10.20;7.43;;;2.20;80.90;;;;;;5048164;28;20040;-61
2023/01/15 14:13:14;;;;;;;8.73;6.72;;;2.30;81.00;;;;;;5047606;28;20044;-63
2023/01/15 14:15:46;;;;;;;14.15;8.07;;;2.30;81.20;;;;;;5045744;28;20111;-52
2023/01/15 14:18:19;;;;;;;9.15;6.95;;;2.40;81.20;;;;;;5041982;28;20061;-55
2023/01/15 14:20:56;;;;;;;11.98;8.13;;;2.40;80.90;;;;;;5047104;28;20124;-54
2023/01/15 14:23:22;;;;;;;11.30;7.47;;;2.50;80.70;;;;;;5048829;28;23163;-54
2023/01/15 14:26:10;;;;;;;11.45;7.40;;;2.50;80.70;;;;;;5053280;28;20033;-52
2023/01/15 14:28:54;;;;;;;12.93;7.70;;;2.50;81.00;;;;;;5042840;28;20355;-53
2023/01/15 14:31:41;;;;;;;16.92;8.52;;;2.60;80.60;;;;;;5063903;28;20491;-57